createdAt,value
2019-02-20T00:00:25.969Z,1010.71
2019-02-20T00:05:25.957Z,1010.69
2019-02-20T00:06:26.206Z,1010.73
2019-02-20T00:07:25.848Z,1010.80
2019-02-20T00:08:25.922Z,1010.84
2019-02-20T00:09:25.761Z,1010.80
2019-02-20T00:11:25.732Z,1010.80
2019-02-20T00:12:25.690Z,1010.80
2019-02-20T00:13:25.960Z,1010.83
2019-02-20T00:15:25.611Z,1010.81
2019-02-20T00:16:25.701Z,1010.83
2019-02-20T00:17:25.674Z,1010.83
2019-02-20T00:18:25.806Z,1010.82
2019-02-20T00:19:25.584Z,1010.87
2019-02-20T00:20:25.846Z,1010.82
2019-02-20T00:21:25.492Z,1010.83
2019-02-20T00:22:25.445Z,1010.85
2019-02-20T00:23:25.421Z,1010.86
2019-02-20T00:25:25.391Z,1010.91
2019-02-20T00:26:25.412Z,1010.89
2019-02-20T00:27:25.636Z,1010.90
2019-02-20T00:28:25.321Z,1010.82
2019-02-20T00:29:25.281Z,1010.95
2019-02-20T00:30:25.264Z,1010.97
2019-02-20T00:32:25.310Z,1010.90
2019-02-20T00:33:25.196Z,1010.92
2019-02-20T00:34:25.475Z,1010.94
2019-02-20T00:35:25.153Z,1010.90
2019-02-20T00:37:25.148Z,1010.93
2019-02-20T00:38:25.180Z,1010.93
2019-02-20T00:39:25.157Z,1010.91
2019-02-20T00:40:25.331Z,1010.90
2019-02-20T00:42:24.982Z,1010.96
2019-02-20T00:43:24.961Z,1010.95
2019-02-20T00:44:24.994Z,1010.92
2019-02-20T00:45:24.907Z,1010.89
2019-02-20T00:47:25.162Z,1010.93
2019-02-20T00:48:24.842Z,1010.92
2019-02-20T00:50:24.863Z,1011.00
2019-02-20T00:57:25.238Z,1011.00
2019-02-20T00:58:24.870Z,1010.99
2019-02-20T00:59:24.776Z,1011.01
2019-02-20T01:00:24.569Z,1011.02
2019-02-20T01:01:24.546Z,1011.02
2019-02-20T01:02:24.524Z,1011.02
2019-02-20T01:04:24.571Z,1011.06
2019-02-20T01:05:24.446Z,1011.05
2019-02-20T01:06:24.429Z,1011.11
2019-02-20T01:07:24.410Z,1011.05
2019-02-20T01:08:24.374Z,1010.98
2019-02-20T01:09:24.712Z,1011.02
2019-02-20T01:10:24.337Z,1011.01
2019-02-20T01:11:24.305Z,1010.99
2019-02-20T01:12:24.281Z,1011.02
2019-02-20T01:14:24.240Z,1010.94
2019-02-20T01:15:24.570Z,1010.98
2019-02-20T01:18:24.282Z,1011.01
2019-02-20T01:19:24.128Z,1011.01
2019-02-20T01:20:24.098Z,1011.09
2019-02-20T01:21:24.144Z,1010.99
2019-02-20T01:22:24.347Z,1011.02
2019-02-20T01:23:24.045Z,1011.04
2019-02-20T01:24:24.012Z,1011.03
2019-02-20T01:25:23.979Z,1010.99
2019-02-20T01:26:23.968Z,1011.02
2019-02-20T01:27:23.983Z,1011.05
2019-02-20T01:28:23.911Z,1010.95
2019-02-20T01:29:23.892Z,1010.92
2019-02-20T01:31:23.841Z,1010.93
2019-02-20T01:32:23.822Z,1010.90
2019-02-20T01:33:23.858Z,1010.94
2019-02-20T01:34:23.925Z,1010.94
2019-02-20T01:35:24.328Z,1010.93
2019-02-20T01:36:24.708Z,1010.95
2019-02-20T01:37:23.789Z,1010.91
2019-02-20T01:39:23.810Z,1010.88
2019-02-20T01:40:23.653Z,1010.86
2019-02-20T01:42:23.883Z,1010.91
2019-02-20T01:43:23.609Z,1010.90
2019-02-20T01:44:23.536Z,1010.85
2019-02-20T01:46:23.713Z,1010.83
2019-02-20T01:48:23.739Z,1010.87
2019-02-20T01:50:23.407Z,1010.85
2019-02-20T01:53:23.381Z,1010.83
2019-02-20T02:00:23.519Z,1010.84
2019-02-20T02:02:23.120Z,1010.83
2019-02-20T02:03:23.220Z,1010.86
2019-02-20T02:04:23.073Z,1010.84
2019-02-20T02:05:23.044Z,1010.83
2019-02-20T02:06:23.435Z,1010.82
2019-02-20T02:07:23.005Z,1010.88
2019-02-20T02:08:23.006Z,1010.84
2019-02-20T02:10:22.999Z,1010.91
2019-02-20T02:11:22.909Z,1010.89
2019-02-20T02:12:23.493Z,1010.97
2019-02-20T02:13:22.865Z,1011.03
2019-02-20T02:14:22.854Z,1011.04
2019-02-20T02:15:22.822Z,1011.05
2019-02-20T02:16:22.791Z,1011.05
2019-02-20T02:17:22.867Z,1011.04
2019-02-20T02:19:22.715Z,1011.03
2019-02-20T02:21:22.933Z,1011.01
2019-02-20T02:22:22.650Z,1011.07
2019-02-20T02:23:22.724Z,1010.92
2019-02-20T02:24:22.959Z,1010.96
2019-02-20T02:25:22.578Z,1010.91
2019-02-20T02:26:22.571Z,1010.96
2019-02-20T02:27:22.607Z,1010.99
2019-02-20T02:28:22.514Z,1010.97
2019-02-20T02:29:22.486Z,1010.96
2019-02-20T02:30:22.818Z,1010.96
2019-02-20T02:31:22.438Z,1010.98
2019-02-20T02:32:22.424Z,1010.96
2019-02-20T02:33:22.409Z,1010.98
2019-02-20T02:34:22.369Z,1011.00
2019-02-20T02:35:22.867Z,1011.01
2019-02-20T02:36:22.827Z,1010.95
2019-02-20T02:37:22.451Z,1010.90
2019-02-20T02:38:22.376Z,1010.96
2019-02-20T02:39:22.250Z,1010.94
2019-02-20T02:40:22.349Z,1010.88
2019-02-20T02:41:22.350Z,1010.92
2019-02-20T02:42:22.721Z,1010.96
2019-02-20T02:43:23.006Z,1010.96
2019-02-20T02:45:22.699Z,1010.93
2019-02-20T02:46:22.258Z,1010.98
2019-02-20T02:49:22.729Z,1010.99
2019-02-20T02:50:22.150Z,1011.00
2019-02-20T02:51:22.370Z,1011.01
2019-02-20T02:52:22.832Z,1010.99
2019-02-20T02:53:30.453Z,1011.02
2019-02-20T02:56:22.211Z,1011.01
2019-02-20T03:01:22.602Z,1010.92
2019-02-20T03:02:21.766Z,1010.96
2019-02-20T03:03:22.399Z,1010.92
2019-02-20T03:04:21.674Z,1010.96
2019-02-20T03:05:21.806Z,1010.96
2019-02-20T03:06:21.742Z,1010.98
2019-02-20T03:07:21.689Z,1011.01
2019-02-20T03:08:21.909Z,1011.02
2019-02-20T03:09:21.552Z,1011.01
2019-02-20T03:10:21.844Z,1011.08
2019-02-20T03:11:21.630Z,1011.04
2019-02-20T03:12:21.951Z,1011.03
2019-02-20T03:13:21.611Z,1011.08
2019-02-20T03:14:21.483Z,1011.08
2019-02-20T03:15:21.457Z,1011.05
2019-02-20T03:16:21.464Z,1011.03
2019-02-20T03:17:21.766Z,1011.00
2019-02-20T03:18:21.382Z,1011.00
2019-02-20T03:19:21.313Z,1011.04
2019-02-20T03:20:21.354Z,1011.02
2019-02-20T03:21:21.272Z,1011.08
2019-02-20T03:22:21.399Z,1011.08
2019-02-20T03:23:21.302Z,1011.04
2019-02-20T03:24:21.688Z,1011.06
2019-02-20T03:25:21.438Z,1011.08
2019-02-20T03:26:21.347Z,1011.05
2019-02-20T03:27:21.288Z,1011.10
2019-02-20T03:28:21.186Z,1011.15
2019-02-20T03:29:21.227Z,1011.07
2019-02-20T03:31:21.501Z,1011.09
2019-02-20T03:32:21.156Z,1011.08
2019-02-20T03:33:21.001Z,1011.10
2019-02-20T03:34:21.074Z,1011.11
2019-02-20T03:36:21.609Z,1011.11
2019-02-20T03:37:21.198Z,1011.09
2019-02-20T03:38:30.033Z,1011.16
2019-02-20T03:39:21.480Z,1011.17
2019-02-20T03:40:20.943Z,1011.18
2019-02-20T03:41:20.948Z,1011.16
2019-02-20T03:42:20.933Z,1011.16
2019-02-20T03:43:20.883Z,1011.19
2019-02-20T03:44:21.202Z,1011.19
2019-02-20T03:45:20.786Z,1011.22
2019-02-20T03:47:20.746Z,1011.16
2019-02-20T03:48:20.641Z,1011.17
2019-02-20T03:49:20.705Z,1011.15
2019-02-20T03:51:21.049Z,1011.17
2019-02-20T03:52:20.658Z,1011.19
2019-02-20T03:53:20.596Z,1011.18
2019-02-20T03:56:20.611Z,1011.10
2019-02-20T03:57:20.479Z,1011.08
2019-02-20T03:58:20.701Z,1011.07
2019-02-20T03:59:20.392Z,1011.06
2019-02-20T04:00:20.369Z,1011.04
2019-02-20T04:04:20.261Z,1011.06
2019-02-20T04:05:20.531Z,1011.03
2019-02-20T04:06:20.210Z,1011.01
2019-02-20T04:07:20.352Z,1011.02
2019-02-20T04:08:20.180Z,1010.97
2019-02-20T04:09:20.198Z,1011.03
2019-02-20T04:10:20.139Z,1010.98
2019-02-20T04:11:20.097Z,1010.99
2019-02-20T04:12:20.375Z,1011.04
2019-02-20T04:13:20.154Z,1011.06
2019-02-20T04:14:20.026Z,1011.05
2019-02-20T04:15:20.098Z,1011.13
2019-02-20T04:16:20.090Z,1011.14
2019-02-20T04:17:20.001Z,1011.09
2019-02-20T04:18:20.030Z,1011.10
2019-02-20T04:19:20.416Z,1011.06
2019-02-20T04:20:20.046Z,1011.12
2019-02-20T04:21:20.145Z,1011.16
2019-02-20T04:23:19.879Z,1011.15
2019-02-20T04:24:19.878Z,1011.16
2019-02-20T04:25:20.463Z,1011.12
2019-02-20T04:26:20.049Z,1011.18
2019-02-20T04:27:19.762Z,1011.16
2019-02-20T04:28:19.700Z,1011.13
2019-02-20T04:29:19.774Z,1011.15
2019-02-20T04:30:19.643Z,1011.12
2019-02-20T04:31:19.621Z,1011.12
2019-02-20T04:32:19.600Z,1011.11
2019-02-20T04:33:20.053Z,1011.10
2019-02-20T04:34:19.550Z,1011.15
2019-02-20T04:35:19.538Z,1011.10
2019-02-20T04:37:19.487Z,1011.07
2019-02-20T04:38:19.460Z,1011.07
2019-02-20T04:39:19.490Z,1011.05
2019-02-20T04:40:19.708Z,1011.07
2019-02-20T04:41:19.510Z,1011.13
2019-02-20T04:42:19.494Z,1011.22
2019-02-20T04:43:19.474Z,1011.15
2019-02-20T04:45:19.837Z,1011.15
2019-02-20T04:46:19.391Z,1011.10
2019-02-20T04:47:19.785Z,1011.11
2019-02-20T04:48:19.216Z,1011.14
2019-02-20T04:49:19.230Z,1011.20
2019-02-20T04:50:19.177Z,1011.20
2019-02-20T04:52:19.257Z,1011.17
2019-02-20T04:55:19.052Z,1011.20
2019-02-20T04:56:19.026Z,1011.20
2019-02-20T04:57:19.069Z,1011.22
2019-02-20T04:58:18.983Z,1011.20
2019-02-20T04:59:19.257Z,1011.21
2019-02-20T05:01:18.921Z,1011.18
2019-02-20T05:05:19.169Z,1011.23
2019-02-20T05:06:19.402Z,1011.22
2019-02-20T05:07:31.611Z,1011.32
2019-02-20T05:09:18.722Z,1011.24
2019-02-20T05:10:18.700Z,1011.22
2019-02-20T05:11:19.024Z,1011.20
2019-02-20T05:12:18.652Z,1011.21
2019-02-20T05:13:18.630Z,1011.23
2019-02-20T05:14:18.607Z,1011.20
2019-02-20T05:15:18.591Z,1011.20
2019-02-20T05:16:18.557Z,1011.24
2019-02-20T05:17:18.883Z,1011.25
2019-02-20T05:18:18.518Z,1011.17
2019-02-20T05:19:18.489Z,1011.16
2019-02-20T05:20:18.466Z,1011.18
2019-02-20T05:21:18.450Z,1011.21
2019-02-20T05:22:18.417Z,1011.23
2019-02-20T05:23:19.236Z,1011.23
2019-02-20T05:24:24.498Z,1011.28
2019-02-20T05:25:18.365Z,1011.28
2019-02-20T05:27:18.372Z,1011.27
2019-02-20T05:28:18.362Z,1011.26
2019-02-20T05:29:18.428Z,1011.29
2019-02-20T05:30:18.559Z,1011.31
2019-02-20T05:31:18.461Z,1011.36
2019-02-20T05:32:18.192Z,1011.37
2019-02-20T05:33:18.233Z,1011.36
2019-02-20T05:34:18.141Z,1011.32
2019-02-20T05:35:18.176Z,1011.33
2019-02-20T05:36:18.157Z,1011.33
2019-02-20T05:37:18.384Z,1011.40
2019-02-20T05:38:18.045Z,1011.36
2019-02-20T05:39:18.238Z,1011.38
2019-02-20T05:40:18.226Z,1011.40
2019-02-20T05:41:18.019Z,1011.41
2019-02-20T05:42:17.940Z,1011.39
2019-02-20T05:43:17.925Z,1011.43
2019-02-20T05:44:18.211Z,1011.41
2019-02-20T05:45:17.988Z,1011.41
2019-02-20T05:46:17.864Z,1011.41
2019-02-20T05:47:17.878Z,1011.45
2019-02-20T05:48:17.905Z,1011.43
2019-02-20T05:49:17.862Z,1011.45
2019-02-20T05:50:17.771Z,1011.47
2019-02-20T05:51:18.159Z,1011.41
2019-02-20T05:52:17.792Z,1011.44
2019-02-20T05:54:18.577Z,1011.43
2019-02-20T05:55:18.311Z,1011.44
2019-02-20T05:57:18.581Z,1011.43
2019-02-20T05:58:18.080Z,1011.45
2019-02-20T05:59:17.802Z,1011.50
2019-02-20T06:00:17.853Z,1011.55
2019-02-20T06:06:17.728Z,1011.61
2019-02-20T06:07:17.363Z,1011.55
2019-02-20T06:08:17.443Z,1011.53
2019-02-20T06:09:17.355Z,1011.58
2019-02-20T06:10:17.279Z,1011.56
2019-02-20T06:11:17.258Z,1011.57
2019-02-20T06:12:17.386Z,1011.61
2019-02-20T06:13:17.535Z,1011.61
2019-02-20T06:14:17.266Z,1011.67
2019-02-20T06:15:17.235Z,1011.57
2019-02-20T06:16:17.150Z,1011.64
2019-02-20T06:17:17.324Z,1011.55
2019-02-20T06:18:17.557Z,1011.60
2019-02-20T06:19:17.595Z,1011.54
2019-02-20T06:20:17.072Z,1011.55
2019-02-20T06:21:17.292Z,1011.57
2019-02-20T06:22:17.011Z,1011.59
2019-02-20T06:23:16.980Z,1011.60
2019-02-20T06:24:17.325Z,1011.62
2019-02-20T06:25:17.521Z,1011.65
2019-02-20T06:26:17.078Z,1011.68
2019-02-20T06:27:17.135Z,1011.71
2019-02-20T06:28:17.126Z,1011.73
2019-02-20T06:29:17.102Z,1011.76
2019-02-20T06:30:17.133Z,1011.73
2019-02-20T06:33:16.869Z,1011.74
2019-02-20T06:35:16.939Z,1011.77
2019-02-20T06:36:17.147Z,1011.80
2019-02-20T06:37:17.263Z,1011.75
2019-02-20T06:38:16.858Z,1011.81
2019-02-20T06:39:16.743Z,1011.79
2019-02-20T06:40:16.752Z,1011.83
2019-02-20T06:41:16.960Z,1011.82
2019-02-20T06:42:16.603Z,1011.81
2019-02-20T06:43:17.167Z,1011.81
2019-02-20T06:44:16.554Z,1011.81
2019-02-20T06:45:16.454Z,1011.79
2019-02-20T06:46:42.190Z,1011.81
2019-02-20T06:47:16.482Z,1011.84
2019-02-20T06:48:16.559Z,1011.86
2019-02-20T06:49:16.687Z,1011.88
2019-02-20T06:50:16.402Z,1011.89
2019-02-20T06:51:16.347Z,1011.92
2019-02-20T06:52:16.299Z,1011.91
2019-02-20T06:53:16.287Z,1011.94
2019-02-20T06:54:16.308Z,1011.95
2019-02-20T06:55:16.518Z,1011.99
2019-02-20T06:57:16.175Z,1012.05
2019-02-20T06:58:16.146Z,1012.04
2019-02-20T06:59:16.131Z,1011.99
2019-02-20T07:00:16.238Z,1012.05
2019-02-20T07:02:16.388Z,1012.07
2019-02-20T07:03:16.341Z,1012.10
2019-02-20T07:04:16.097Z,1012.05
2019-02-20T07:05:15.982Z,1012.09
2019-02-20T07:07:15.978Z,1012.11
2019-02-20T07:08:16.209Z,1012.11
2019-02-20T07:09:15.902Z,1012.16
2019-02-20T07:10:16.673Z,1012.16
2019-02-20T07:11:15.841Z,1012.20
2019-02-20T07:12:15.820Z,1012.20
2019-02-20T07:13:15.914Z,1012.22
2019-02-20T07:14:16.080Z,1012.23
2019-02-20T07:15:15.749Z,1012.24
2019-02-20T07:16:15.719Z,1012.21
2019-02-20T07:17:15.700Z,1012.20
2019-02-20T07:18:15.669Z,1012.15
2019-02-20T07:19:15.770Z,1012.23
2019-02-20T07:20:15.950Z,1012.25
2019-02-20T07:21:15.696Z,1012.20
2019-02-20T07:22:16.040Z,1012.26
2019-02-20T07:23:15.560Z,1012.21
2019-02-20T07:24:15.543Z,1012.26
2019-02-20T07:25:15.560Z,1012.22
2019-02-20T07:27:15.478Z,1012.31
2019-02-20T07:28:15.515Z,1012.29
2019-02-20T07:29:15.489Z,1012.30
2019-02-20T07:30:15.515Z,1012.31
2019-02-20T07:31:15.460Z,1012.31
2019-02-20T07:32:15.645Z,1012.36
2019-02-20T07:33:15.324Z,1012.39
2019-02-20T07:34:15.375Z,1012.41
2019-02-20T07:36:15.323Z,1012.41
2019-02-20T07:38:15.555Z,1012.48
2019-02-20T07:39:15.191Z,1012.45
2019-02-20T07:42:15.120Z,1012.49
2019-02-20T07:43:15.099Z,1012.47
2019-02-20T07:44:15.118Z,1012.49
2019-02-20T07:45:15.426Z,1012.53
2019-02-20T07:47:15.020Z,1012.53
2019-02-20T07:48:14.981Z,1012.50
2019-02-20T07:49:15.386Z,1012.47
2019-02-20T07:50:14.972Z,1012.45
2019-02-20T07:51:15.241Z,1012.54
2019-02-20T07:52:14.892Z,1012.52
2019-02-20T07:53:14.852Z,1012.49
2019-02-20T07:54:14.912Z,1012.53
2019-02-20T07:55:14.843Z,1012.52
2019-02-20T07:56:14.859Z,1012.58
2019-02-20T07:57:15.304Z,1012.59
2019-02-20T07:58:14.852Z,1012.60
2019-02-20T07:59:14.799Z,1012.57
2019-02-20T08:00:14.730Z,1012.59
2019-02-20T08:01:14.670Z,1012.59
2019-02-20T08:02:14.850Z,1012.61
2019-02-20T08:04:14.916Z,1012.65
2019-02-20T08:09:14.686Z,1012.65
2019-02-20T08:10:14.862Z,1012.66
2019-02-20T08:13:14.457Z,1012.71
2019-02-20T08:14:14.373Z,1012.63
2019-02-20T08:15:14.469Z,1012.68
2019-02-20T08:16:14.644Z,1012.70
2019-02-20T08:17:14.377Z,1012.69
2019-02-20T08:20:14.237Z,1012.80
2019-02-20T08:21:14.721Z,1012.78
2019-02-20T08:22:14.527Z,1012.84
2019-02-20T08:23:14.168Z,1012.84
2019-02-20T08:24:14.148Z,1012.87
2019-02-20T08:25:22.482Z,1012.85
2019-02-20T08:26:14.126Z,1012.95
2019-02-20T08:27:14.222Z,1012.99
2019-02-20T08:28:14.668Z,1013.00
2019-02-20T08:29:14.182Z,1013.06
2019-02-20T08:30:14.392Z,1013.11
2019-02-20T08:31:14.129Z,1013.11
2019-02-20T08:32:14.114Z,1013.07
2019-02-20T08:33:14.135Z,1013.09
2019-02-20T08:34:14.310Z,1013.12
2019-02-20T08:35:13.890Z,1013.14
2019-02-20T08:36:13.975Z,1013.07
2019-02-20T08:37:13.867Z,1013.13
2019-02-20T08:38:13.939Z,1013.12
2019-02-20T08:39:13.858Z,1013.12
2019-02-20T08:40:14.148Z,1013.13
2019-02-20T08:41:13.758Z,1013.19
2019-02-20T08:42:13.746Z,1013.22
2019-02-20T08:43:13.714Z,1013.21
2019-02-20T08:44:13.690Z,1013.28
2019-02-20T08:47:13.741Z,1013.34
2019-02-20T08:48:13.607Z,1013.38
2019-02-20T08:49:13.574Z,1013.33
2019-02-20T08:50:13.677Z,1013.37
2019-02-20T08:51:13.830Z,1013.37
2019-02-20T08:52:13.863Z,1013.38
2019-02-20T08:53:13.501Z,1013.56
2019-02-20T08:54:13.456Z,1013.38
2019-02-20T08:55:13.465Z,1013.43
2019-02-20T08:56:13.418Z,1013.50
2019-02-20T08:57:13.448Z,1013.46
2019-02-20T08:58:13.771Z,1013.51
2019-02-20T08:59:13.391Z,1013.55
2019-02-20T09:00:13.443Z,1013.57
2019-02-20T09:01:13.321Z,1013.56
2019-02-20T09:02:13.336Z,1013.58
2019-02-20T09:03:13.346Z,1013.63
2019-02-20T09:04:13.650Z,1013.69
2019-02-20T09:05:13.240Z,1013.64
2019-02-20T09:06:13.328Z,1013.62
2019-02-20T09:07:13.311Z,1013.66
2019-02-20T09:08:13.155Z,1013.66
2019-02-20T09:09:13.217Z,1013.62
2019-02-20T09:10:13.743Z,1013.65
2019-02-20T09:12:13.759Z,1013.70
2019-02-20T09:13:13.370Z,1013.84
2019-02-20T09:14:13.204Z,1013.75
2019-02-20T09:15:13.069Z,1013.76
2019-02-20T09:17:13.432Z,1013.83
2019-02-20T09:18:13.120Z,1013.85
2019-02-20T09:19:13.022Z,1013.87
2019-02-20T09:20:12.998Z,1013.88
2019-02-20T09:21:13.336Z,1013.89
2019-02-20T09:22:13.311Z,1014.01
2019-02-20T09:23:13.208Z,1013.92
2019-02-20T09:24:12.812Z,1013.87
2019-02-20T09:25:19.989Z,1013.96
2019-02-20T09:27:12.834Z,1013.89
2019-02-20T09:28:12.821Z,1013.89
2019-02-20T09:29:13.067Z,1013.94
2019-02-20T09:30:13.521Z,1013.88
2019-02-20T09:32:12.745Z,1013.87
2019-02-20T09:33:12.700Z,1013.88
2019-02-20T09:34:12.610Z,1013.91
2019-02-20T09:35:12.882Z,1013.97
2019-02-20T09:36:12.606Z,1013.87
2019-02-20T09:37:12.531Z,1013.88
2019-02-20T09:38:12.510Z,1013.87
2019-02-20T09:39:12.534Z,1013.91
2019-02-20T09:40:12.486Z,1013.89
2019-02-20T09:41:12.793Z,1013.95
2019-02-20T09:42:12.525Z,1013.93
2019-02-20T09:43:12.489Z,1013.94
2019-02-20T09:44:12.424Z,1014.01
2019-02-20T09:45:12.544Z,1014.15
2019-02-20T09:46:12.419Z,1014.05
2019-02-20T09:47:12.735Z,1014.04
2019-02-20T09:48:12.407Z,1014.02
2019-02-20T09:49:12.385Z,1013.98
2019-02-20T09:50:12.296Z,1014.06
2019-02-20T09:51:12.297Z,1014.07
2019-02-20T09:52:12.231Z,1014.26
2019-02-20T09:53:12.494Z,1014.11
2019-02-20T09:54:12.171Z,1014.13
2019-02-20T09:55:12.182Z,1014.22
2019-02-20T09:56:12.245Z,1014.27
2019-02-20T09:57:12.198Z,1014.31
2019-02-20T09:58:12.113Z,1014.40
2019-02-20T09:59:12.422Z,1014.79
2019-02-20T10:00:12.117Z,1014.74
2019-02-20T10:01:12.027Z,1014.76
2019-02-20T10:02:12.108Z,1014.74
2019-02-20T10:03:12.040Z,1014.78
2019-02-20T10:04:12.093Z,1014.69
2019-02-20T10:05:12.251Z,1014.61
2019-02-20T10:06:13.039Z,1014.51
2019-02-20T10:07:11.908Z,1014.47
2019-02-20T10:08:11.910Z,1014.36
2019-02-20T10:09:11.930Z,1014.31
2019-02-20T10:10:11.861Z,1014.37
2019-02-20T10:11:12.338Z,1014.49
2019-02-20T10:12:11.829Z,1014.43
2019-02-20T10:13:11.795Z,1014.43
2019-02-20T10:14:11.897Z,1014.46
2019-02-20T10:15:11.811Z,1014.51
2019-02-20T10:16:12.272Z,1014.55
2019-02-20T10:17:12.733Z,1014.52
2019-02-20T10:18:12.310Z,1014.53
2019-02-20T10:19:11.683Z,1014.53
2019-02-20T10:20:11.933Z,1014.51
2019-02-20T10:21:11.776Z,1014.51
2019-02-20T10:22:11.684Z,1014.64
2019-02-20T10:23:12.807Z,1014.63
2019-02-20T10:24:12.120Z,1014.61
2019-02-20T10:25:11.714Z,1014.60
2019-02-20T10:26:11.671Z,1014.58
2019-02-20T10:27:11.883Z,1014.47
2019-02-20T10:28:11.581Z,1014.51
2019-02-20T10:30:11.477Z,1014.50
2019-02-20T10:31:11.524Z,1014.53
2019-02-20T10:32:11.553Z,1014.53
2019-02-20T10:33:11.524Z,1014.55
2019-02-20T10:34:11.405Z,1014.56
2019-02-20T10:35:11.702Z,1014.60
2019-02-20T10:36:11.370Z,1014.60
2019-02-20T10:37:11.469Z,1014.63
2019-02-20T10:38:11.379Z,1014.64
2019-02-20T10:39:11.363Z,1014.60
2019-02-20T10:40:11.372Z,1014.62
2019-02-20T10:41:11.645Z,1014.59
2019-02-20T10:42:11.276Z,1014.68
2019-02-20T10:43:11.546Z,1014.66
2019-02-20T10:44:11.293Z,1014.69
2019-02-20T10:45:11.258Z,1014.68
2019-02-20T10:46:11.240Z,1014.75
2019-02-20T10:47:11.545Z,1014.72
2019-02-20T10:48:11.169Z,1014.75
2019-02-20T10:49:11.235Z,1014.78
2019-02-20T10:50:11.473Z,1014.77
2019-02-20T10:51:11.178Z,1014.65
2019-02-20T10:52:11.078Z,1014.66
2019-02-20T10:53:11.363Z,1014.76
2019-02-20T10:54:11.044Z,1014.79
2019-02-20T10:55:11.111Z,1014.70
2019-02-20T10:56:11.094Z,1014.82
2019-02-20T10:57:11.060Z,1014.84
2019-02-20T10:58:11.101Z,1014.94
2019-02-20T10:59:11.318Z,1015.13
2019-02-20T11:00:10.980Z,1014.98
2019-02-20T11:01:11.204Z,1014.97
2019-02-20T11:02:11.006Z,1014.98
2019-02-20T11:03:11.533Z,1014.91
2019-02-20T11:04:10.881Z,1014.81
2019-02-20T11:05:11.676Z,1014.91
2019-02-20T11:06:10.885Z,1014.87
2019-02-20T11:07:11.234Z,1014.93
2019-02-20T11:08:10.901Z,1014.87
2019-02-20T11:09:11.311Z,1014.92
2019-02-20T11:10:10.835Z,1014.87
2019-02-20T11:11:11.372Z,1014.88
2019-02-20T11:12:10.806Z,1014.87
2019-02-20T11:13:10.732Z,1014.95
2019-02-20T11:14:11.105Z,1015.01
2019-02-20T11:15:10.843Z,1014.96
2019-02-20T11:16:11.408Z,1014.87
2019-02-20T11:17:11.077Z,1014.94
2019-02-20T11:18:10.967Z,1014.94
2019-02-20T11:20:10.676Z,1014.89
2019-02-20T11:21:11.119Z,1014.86
2019-02-20T11:22:16.995Z,1014.86
2019-02-20T11:23:10.884Z,1014.83
2019-02-20T11:24:10.623Z,1014.85
2019-02-20T11:25:10.523Z,1014.87
2019-02-20T11:26:17.974Z,1014.90
2019-02-20T11:27:10.690Z,1014.98
2019-02-20T11:29:10.858Z,1014.86
2019-02-20T11:30:10.545Z,1014.79
2019-02-20T11:31:10.429Z,1014.94
2019-02-20T11:32:10.476Z,1014.91
2019-02-20T11:33:10.584Z,1014.96
2019-02-20T11:35:10.921Z,1014.88
2019-02-20T11:36:10.427Z,1014.86
2019-02-20T11:37:10.390Z,1014.84
2019-02-20T11:38:10.370Z,1014.91
2019-02-20T11:39:11.672Z,1014.99
2019-02-20T11:40:10.292Z,1015.05
2019-02-20T11:41:10.575Z,1015.06
2019-02-20T11:42:10.240Z,1015.00
2019-02-20T11:43:10.297Z,1015.02
2019-02-20T11:44:10.208Z,1014.95
2019-02-20T11:45:10.260Z,1014.99
2019-02-20T11:46:10.171Z,1014.93
2019-02-20T11:47:10.452Z,1014.94
2019-02-20T11:48:10.143Z,1015.00
2019-02-20T11:49:10.118Z,1014.99
2019-02-20T11:50:10.124Z,1015.05
2019-02-20T11:51:10.180Z,1015.03
2019-02-20T11:52:10.089Z,1015.12
2019-02-20T11:53:10.401Z,1015.09
2019-02-20T11:54:10.140Z,1014.96
2019-02-20T11:55:10.087Z,1014.93
2019-02-20T11:56:10.016Z,1015.00
2019-02-20T11:57:10.085Z,1015.03
2019-02-20T11:58:09.977Z,1015.10
2019-02-20T11:59:10.259Z,1015.04
2019-02-20T12:00:10.023Z,1015.01
2019-02-20T12:01:09.916Z,1015.07
2019-02-20T12:02:09.909Z,1014.99
2019-02-20T12:04:09.934Z,1014.98
2019-02-20T12:05:10.234Z,1015.02
2019-02-20T12:06:09.850Z,1014.96
2019-02-20T12:07:09.920Z,1015.02
2019-02-20T12:08:09.830Z,1014.72
2019-02-20T12:09:09.884Z,1014.98
2019-02-20T12:10:09.961Z,1015.05
2019-02-20T12:11:10.126Z,1014.99
2019-02-20T12:12:09.765Z,1014.73
2019-02-20T12:13:09.865Z,1015.14
2019-02-20T12:14:09.709Z,1015.09
2019-02-20T12:15:09.749Z,1014.86
2019-02-20T12:17:10.022Z,1015.15
2019-02-20T12:18:17.192Z,1015.19
2019-02-20T12:19:09.644Z,1014.87
2019-02-20T12:20:09.642Z,1015.31
2019-02-20T12:21:09.763Z,1015.30
2019-02-20T12:23:09.926Z,1015.11
2019-02-20T12:25:09.596Z,1015.19
2019-02-20T12:26:09.514Z,1015.23
2019-02-20T12:27:09.527Z,1015.14
2019-02-20T12:28:09.560Z,1015.15
2019-02-20T12:29:11.233Z,1015.20
2019-02-20T12:30:09.747Z,1015.19
2019-02-20T12:31:09.464Z,1015.25
2019-02-20T12:32:09.444Z,1015.14
2019-02-20T12:34:09.407Z,1014.85
2019-02-20T12:35:09.515Z,1014.72
2019-02-20T12:36:09.686Z,1015.11
2019-02-20T12:37:09.341Z,1014.69
2019-02-20T12:38:09.367Z,1015.10
2019-02-20T12:39:09.390Z,1015.07
2019-02-20T12:40:09.718Z,1014.94
2019-02-20T12:41:10.894Z,1015.12
2019-02-20T12:42:09.886Z,1014.94
2019-02-20T12:43:09.234Z,1015.21
2019-02-20T12:44:09.288Z,1015.18
2019-02-20T12:45:09.266Z,1015.28
2019-02-20T12:46:09.262Z,1014.88
2019-02-20T12:47:09.296Z,1015.28
2019-02-20T12:48:09.545Z,1015.09
2019-02-20T12:49:09.139Z,1014.93
2019-02-20T12:50:09.159Z,1015.13
2019-02-20T12:52:09.142Z,1014.76
2019-02-20T12:53:09.270Z,1014.74
2019-02-20T12:54:09.393Z,1014.83
2019-02-20T12:55:09.065Z,1015.16
2019-02-20T12:56:10.212Z,1014.79
2019-02-20T12:57:10.318Z,1014.82
2019-02-20T12:58:08.994Z,1014.76
2019-02-20T12:59:09.083Z,1015.18
2019-02-20T13:00:09.367Z,1015.05
2019-02-20T13:01:08.943Z,1015.02
2019-02-20T13:02:08.980Z,1014.94
2019-02-20T13:03:08.943Z,1015.00
2019-02-20T13:04:08.894Z,1014.87
2019-02-20T13:05:08.956Z,1014.87
2019-02-20T13:06:09.168Z,1014.90
2019-02-20T13:07:08.851Z,1014.88
2019-02-20T13:08:09.646Z,1014.88
2019-02-20T13:09:08.814Z,1014.88
2019-02-20T13:10:08.819Z,1014.89
2019-02-20T13:11:08.942Z,1014.77
2019-02-20T13:12:09.099Z,1014.88
2019-02-20T13:13:08.773Z,1014.87
2019-02-20T13:14:08.742Z,1014.74
2019-02-20T13:15:08.806Z,1014.76
2019-02-20T13:16:10.153Z,1014.92
2019-02-20T13:17:08.777Z,1014.82
2019-02-20T13:18:09.061Z,1014.73
2019-02-20T13:19:09.414Z,1014.72
2019-02-20T13:20:09.963Z,1014.70
2019-02-20T13:23:09.437Z,1014.69
2019-02-20T13:26:08.764Z,1014.63
2019-02-20T13:28:08.757Z,1014.59
2019-02-20T13:29:08.562Z,1014.45
2019-02-20T13:30:08.456Z,1014.50
2019-02-20T13:31:08.806Z,1014.46
2019-02-20T13:32:08.476Z,1014.47
2019-02-20T13:33:08.428Z,1014.47
2019-02-20T13:35:08.424Z,1014.55
2019-02-20T13:36:08.366Z,1014.59
2019-02-20T13:37:08.411Z,1014.56
2019-02-20T13:38:08.316Z,1014.66
2019-02-20T13:39:08.311Z,1014.64
2019-02-20T13:40:08.431Z,1014.62
2019-02-20T13:41:08.310Z,1014.62
2019-02-20T13:42:08.350Z,1014.65
2019-02-20T13:43:08.305Z,1014.66
2019-02-20T13:44:08.527Z,1014.64
2019-02-20T13:45:08.228Z,1014.54
2019-02-20T13:46:08.191Z,1014.56
2019-02-20T13:47:08.263Z,1014.67
2019-02-20T13:48:08.192Z,1014.60
2019-02-20T13:49:08.338Z,1014.72
2019-02-20T13:50:08.120Z,1014.67
2019-02-20T13:51:08.511Z,1014.66
2019-02-20T13:52:08.246Z,1014.68
2019-02-20T13:53:08.113Z,1014.65
2019-02-20T13:54:08.189Z,1014.59
2019-02-20T13:55:08.032Z,1014.56
2019-02-20T13:56:08.050Z,1014.67
2019-02-20T13:57:08.382Z,1014.57
2019-02-20T13:58:11.203Z,1014.45
2019-02-20T13:59:08.175Z,1014.42
2019-02-20T14:00:08.296Z,1014.44
2019-02-20T14:01:07.936Z,1014.46
2019-02-20T14:02:07.901Z,1014.49
2019-02-20T14:03:08.236Z,1014.50
2019-02-20T14:04:08.009Z,1014.57
2019-02-20T14:05:08.215Z,1014.62